Time;durP1;ratioP1;P1;durP2;ratioP2;P2;SDS_P1;SDS_P2;PMS_P1;PMS_P2;Temp;Humidity;BMP_temperature;BMP_pressure;BME280_temperature;BME280_humidity;BME280_pressure;Samples;Min_cycle;Max_cycle;Signal;HPM_P1;HPM_P2
2023/07/07 00:00:47;;;;;;;6.43;4.00;;;15.80;99.90;;;;;;5030263;28;20220;-68
2023/07/07 00:03:13;;;;;;;6.47;4.30;;;15.80;99.90;;;;;;5031622;28;20053;-79
2023/07/07 00:05:42;;;;;;;8.00;4.25;;;15.70;99.90;;;;;;5013483;28;20494;-81
2023/07/07 00:08:09;;;;;;;7.80;4.45;;;15.70;99.90;;;;;;5030806;28;20045;-82
2023/07/07 00:10:34;;;;;;;7.43;4.10;;;15.70;99.90;;;;;;5030423;28;20053;-81
2023/07/07 00:13:00;;;;;;;8.27;3.90;;;15.70;99.90;;;;;;5014215;28;20057;-82
2023/07/07 00:15:26;;;;;;;7.72;4.40;;;15.70;99.90;;;;;;4998072;28;20108;-82
2023/07/07 00:17:51;;;;;;;6.60;4.07;;;15.70;99.90;;;;;;5014134;28;20128;-82
2023/07/07 00:20:17;;;;;;;6.57;3.80;;;15.70;99.90;;;;;;5030738;28;20045;-82
2023/07/07 00:22:44;;;;;;;8.55;4.43;;;15.70;99.90;;;;;;5030427;28;20107;-82
2023/07/07 00:25:10;;;;;;;5.13;3.88;;;15.70;99.90;;;;;;5014049;28;20053;-84
2023/07/07 00:27:37;;;;;;;8.63;4.20;;;15.60;99.90;;;;;;5013435;28;20384;-82
2023/07/07 00:30:03;;;;;;;7.03;3.92;;;15.60;99.90;;;;;;5030756;28;20562;-83
2023/07/07 00:32:30;;;;;;;7.68;4.07;;;15.60;99.90;;;;;;5017177;28;20049;-82
2023/07/07 00:34:56;;;;;;;9.38;4.22;;;15.60;99.90;;;;;;5034001;28;20045;-83
2023/07/07 00:37:22;;;;;;;6.35;4.20;;;15.60;99.90;;;;;;5034067;28;20048;-82
2023/07/07 00:39:48;;;;;;;5.97;4.53;;;15.60;99.90;;;;;;5017181;28;20063;-83
2023/07/07 00:42:14;;;;;;;6.25;4.68;;;15.60;99.90;;;;;;5017467;28;20056;-82
2023/07/07 00:45:04;;;;;;;8.43;5.63;;;15.50;99.90;;;;;;5033459;28;20476;-82
2023/07/07 00:47:31;;;;;;;9.77;5.47;;;15.60;99.90;;;;;;5018018;28;20049;-84
2023/07/07 00:49:57;;;;;;;10.90;5.60;;;15.50;99.90;;;;;;5033945;28;20091;-82
2023/07/07 00:52:23;;;;;;;11.18;6.18;;;15.50;99.90;;;;;;5017514;28;20049;-82
2023/07/07 00:54:49;;;;;;;9.30;5.82;;;15.40;99.90;;;;;;5017056;28;20056;-82
2023/07/07 00:57:15;;;;;;;7.88;5.25;;;15.40;99.90;;;;;;5023752;28;20057;-84
2023/07/07 00:59:44;;;;;;;7.88;5.00;;;15.40;99.90;;;;;;5021296;28;20447;-84
2023/07/07 01:02:13;;;;;;;8.80;5.30;;;15.40;99.90;;;;;;5034918;28;20049;-83
2023/07/07 01:04:48;;;;;;;9.38;4.78;;;15.40;99.90;;;;;;5033041;28;20487;-82
2023/07/07 01:07:21;;;;;;;8.02;4.75;;;15.40;99.90;;;;;;5033287;28;20128;-83
2023/07/07 01:09:46;;;;;;;11.80;4.75;;;15.40;99.90;;;;;;5033073;28;20049;-82
2023/07/07 01:12:15;;;;;;;9.52;4.82;;;15.40;99.90;;;;;;5016970;28;20466;-81
2023/07/07 01:14:45;;;;;;;7.18;4.68;;;15.40;99.90;;;;;;5032903;28;20113;-84
2023/07/07 01:17:35;;;;;;;8.75;4.72;;;15.30;99.90;;;;;;5032586;28;20495;-83
2023/07/07 01:20:07;;;;;;;9.05;5.15;;;15.30;99.90;;;;;;5032979;28;20049;-85
2023/07/07 01:23:12;;;;;;;7.63;5.30;;;15.20;99.90;;;;;;5033288;28;20085;-83
2023/07/07 01:26:03;;;;;;;7.97;4.70;;;15.20;99.90;;;;;;4976000;28;20104;-82
2023/07/07 01:29:03;;;;;;;5.97;4.53;;;15.20;99.90;;;;;;5033127;28;20050;-84
2023/07/07 01:31:57;;;;;;;8.73;5.80;;;15.10;99.90;;;;;;5033523;28;20076;-83
2023/07/07 01:34:24;;;;;;;11.70;7.43;;;15.10;99.90;;;;;;5033153;28;20046;-83
2023/07/07 01:36:50;;;;;;;9.88;8.00;;;15.10;99.90;;;;;;5016656;28;20160;-83
2023/07/07 01:39:15;;;;;;;14.07;7.95;;;15.00;99.90;;;;;;5016656;28;20138;-84
2023/07/07 01:42:05;;;;;;;12.57;7.13;;;15.00;99.90;;;;;;5032493;28;20045;-83
2023/07/07 01:45:08;;;;;;;13.13;7.25;;;15.00;99.90;;;;;;5033316;28;20399;-83
2023/07/07 01:47:37;;;;;;;9.30;6.72;;;15.00;99.90;;;;;;5032808;28;20094;-83
2023/07/07 01:50:22;;;;;;;10.52;6.28;;;15.00;99.90;;;;;;5032746;28;20045;-83
2023/07/07 01:53:11;;;;;;;8.95;6.38;;;15.00;99.90;;;;;;5032688;28;20505;-83
2023/07/07 01:55:58;;;;;;;11.25;6.43;;;15.00;99.90;;;;;;5032692;28;20510;-83
2023/07/07 01:58:26;;;;;;;10.38;6.82;;;14.90;99.90;;;;;;5032774;28;20064;-83
2023/07/07 02:00:55;;;;;;;10.55;6.47;;;14.90;99.90;;;;;;5016827;28;20090;-83
2023/07/07 02:03:21;;;;;;;11.27;6.25;;;14.90;99.90;;;;;;5037850;28;20050;-83
2023/07/07 02:05:47;;;;;;;10.48;6.50;;;14.80;99.90;;;;;;5022953;28;20048;-84
2023/07/07 02:08:13;;;;;;;11.70;6.95;;;14.50;99.90;;;;;;5023561;28;20049;-83
2023/07/07 02:10:38;;;;;;;11.75;5.95;;;14.90;99.90;;;;;;5034685;28;20052;-83
2023/07/07 02:13:04;;;;;;;9.43;5.82;;;14.80;99.90;;;;;;5031963;28;20289;-84
2023/07/07 02:15:30;;;;;;;9.85;5.90;;;14.80;99.90;;;;;;5032162;28;20048;-83
2023/07/07 02:17:56;;;;;;;8.45;6.00;;;14.70;99.90;;;;;;4999034;28;20051;-83
2023/07/07 02:20:22;;;;;;;8.82;5.63;;;14.70;99.90;;;;;;5015907;28;20045;-84
2023/07/07 02:22:48;;;;;;;8.07;5.93;;;14.60;99.90;;;;;;5015280;28;20047;-83
2023/07/07 02:25:13;;;;;;;10.23;5.57;;;14.60;99.90;;;;;;5015301;28;20060;-84
2023/07/07 02:27:39;;;;;;;9.43;6.00;;;14.60;99.90;;;;;;5015868;28;20046;-84
2023/07/07 02:30:05;;;;;;;8.82;5.57;;;14.60;99.90;;;;;;5031654;28;20632;-83
2023/07/07 02:32:31;;;;;;;8.93;6.00;;;14.60;99.90;;;;;;5015558;28;20057;-83
2023/07/07 02:35:02;;;;;;;10.93;5.45;;;14.60;99.90;;;;;;5014968;28;20045;-83
2023/07/07 02:37:28;;;;;;;8.68;5.60;;;14.50;99.90;;;;;;5031929;28;20399;-83
2023/07/07 02:39:54;;;;;;;12.35;5.93;;;14.50;99.90;;;;;;5014917;28;20060;-83
2023/07/07 02:42:20;;;;;;;8.00;5.70;;;14.50;99.90;;;;;;5015545;28;20045;-84
2023/07/07 02:44:46;;;;;;;9.05;6.45;;;14.60;99.90;;;;;;5031742;28;20049;-84
2023/07/07 02:47:12;;;;;;;10.60;6.82;;;14.60;99.90;;;;;;5030898;28;20041;-83
2023/07/07 02:49:38;;;;;;;9.90;6.72;;;14.60;99.90;;;;;;4998768;28;20498;-83
2023/07/07 02:52:05;;;;;;;12.13;7.45;;;14.60;99.90;;;;;;5030919;28;20049;-84
2023/07/07 02:54:31;;;;;;;12.07;7.20;;;14.60;99.90;;;;;;5030962;28;20506;-84
2023/07/07 02:56:56;;;;;;;13.10;7.43;;;14.60;99.90;;;;;;5030942;28;20049;-84
2023/07/07 02:59:22;;;;;;;11.82;7.63;;;14.60;99.90;;;;;;5015117;28;20057;-83
2023/07/07 03:01:48;;;;;;;16.45;8.30;;;14.70;99.90;;;;;;5014931;28;20437;-83
2023/07/07 03:04:14;;;;;;;12.10;7.60;;;14.70;99.90;;;;;;5016139;28;20060;-84
2023/07/07 03:06:40;;;;;;;8.82;7.38;;;14.70;99.90;;;;;;5015717;28;20045;-84
2023/07/07 03:09:07;;;;;;;13.02;7.75;;;14.70;99.90;;;;;;4998575;28;20053;-83
2023/07/07 03:11:33;;;;;;;12.75;8.07;;;14.70;99.90;;;;;;5031087;28;20207;-84
2023/07/07 03:13:59;;;;;;;12.70;8.25;;;14.80;99.90;;;;;;4997774;28;20132;-84
2023/07/07 03:16:30;;;;;;;14.10;9.30;;;14.80;99.90;;;;;;5014952;28;20045;-83
2023/07/07 03:19:02;;;;;;;12.75;8.77;;;14.80;99.90;;;;;;5030989;28;20052;-83
2023/07/07 03:21:28;;;;;;;11.68;8.95;;;14.90;99.90;;;;;;5030838;28;20048;-84
2023/07/07 03:23:55;;;;;;;11.98;8.77;;;14.90;99.90;;;;;;5015095;28;20148;-82
2023/07/07 03:26:23;;;;;;;11.70;8.90;;;14.90;99.90;;;;;;5031469;28;20118;-84
2023/07/07 03:28:49;;;;;;;10.75;9.18;;;14.90;99.90;;;;;;5035452;28;20132;-83
2023/07/07 03:31:29;;;;;;;12.02;9.38;;;14.90;99.90;;;;;;5033755;28;20134;-84
2023/07/07 03:33:58;;;;;;;15.52;9.57;;;14.90;99.90;;;;;;5039645;28;20089;-83
2023/07/07 03:36:27;;;;;;;13.60;9.52;;;14.90;99.90;;;;;;5037563;28;20129;-84
2023/07/07 03:38:52;;;;;;;13.57;9.85;;;14.90;99.90;;;;;;5031265;28;20068;-83
2023/07/07 03:41:23;;;;;;;13.63;9.70;;;14.90;99.90;;;;;;5030560;28;20049;-84
2023/07/07 03:43:50;;;;;;;15.55;9.18;;;14.90;99.90;;;;;;5031058;28;20045;-84
2023/07/07 03:46:18;;;;;;;14.45;9.20;;;14.90;99.90;;;;;;5014191;28;20048;-84
2023/07/07 03:48:45;;;;;;;14.90;10.07;;;14.90;99.90;;;;;;5031013;28;20406;-83
2023/07/07 03:51:13;;;;;;;14.85;9.40;;;14.90;99.90;;;;;;5014181;28;20402;-83
2023/07/07 03:53:39;;;;;;;12.13;9.52;;;14.90;99.90;;;;;;5031202;28;20054;-84
2023/07/07 03:56:05;;;;;;;16.65;10.07;;;14.90;99.90;;;;;;5030528;28;20080;-84
2023/07/07 03:58:32;;;;;;;13.48;9.70;;;14.90;99.90;;;;;;4998577;28;20106;-84
2023/07/07 04:01:06;;;;;;;15.10;10.13;;;14.90;99.90;;;;;;5014518;28;20056;-84
2023/07/07 04:03:32;;;;;;;13.45;9.93;;;14.90;99.90;;;;;;5031119;28;20178;-84
2023/07/07 04:05:58;;;;;;;18.15;10.52;;;15.00;99.90;;;;;;5016881;28;20128;-83
2023/07/07 04:08:26;;;;;;;16.00;9.57;;;15.00;99.90;;;;;;5017578;28;20053;-84
2023/07/07 04:11:00;;;;;;;14.98;9.77;;;15.00;99.90;;;;;;5034859;28;20103;-84
2023/07/07 04:13:28;;;;;;;15.20;10.18;;;15.00;99.90;;;;;;5034527;28;20088;-84
2023/07/07 04:16:05;;;;;;;13.98;10.20;;;15.10;99.90;;;;;;5034604;28;20084;-85
2023/07/07 04:18:31;;;;;;;15.25;10.45;;;15.10;99.90;;;;;;5034604;28;20089;-84
2023/07/07 04:21:15;;;;;;;15.95;9.82;;;15.00;99.90;;;;;;5034181;28;20120;-84
2023/07/07 04:23:42;;;;;;;16.67;10.38;;;15.10;99.90;;;;;;5034508;28;20045;-84
2023/07/07 04:26:10;;;;;;;13.38;9.90;;;15.20;99.90;;;;;;5016824;28;20487;-84
2023/07/07 04:28:36;;;;;;;17.70;10.23;;;15.20;99.90;;;;;;5034111;28;20041;-85
2023/07/07 04:31:04;;;;;;;18.42;10.05;;;15.20;99.90;;;;;;5034461;28;20053;-82
2023/07/07 04:33:31;;;;;;;14.95;10.07;;;15.30;99.90;;;;;;5001697;28;20049;-85
2023/07/07 04:35:59;;;;;;;13.57;10.20;;;15.30;99.90;;;;;;5017017;28;20046;-84
2023/07/07 04:38:32;;;;;;;17.90;10.18;;;15.40;99.90;;;;;;5033265;28;20498;-84
2023/07/07 04:41:21;;;;;;;14.20;9.85;;;15.40;99.90;;;;;;5033643;28;20041;-84
2023/07/07 04:43:52;;;;;;;13.75;10.13;;;15.50;99.90;;;;;;5033819;28;20053;-85
2023/07/07 04:46:23;;;;;;;16.90;10.00;;;15.60;99.90;;;;;;5033600;28;20128;-83
2023/07/07 04:48:49;;;;;;;19.73;10.05;;;15.70;99.90;;;;;;5034094;28;20060;-84
2023/07/07 04:51:15;;;;;;;17.48;9.40;;;15.80;99.90;;;;;;5016954;28;20053;-82
2023/07/07 04:53:41;;;;;;;15.77;9.20;;;16.00;99.90;;;;;;5017371;28;20507;-85
2023/07/07 04:56:11;;;;;;;16.50;10.30;;;16.50;99.90;;;;;;5035421;28;20114;-85
2023/07/07 04:58:39;;;;;;;15.45;9.48;;;17.20;99.90;;;;;;5039405;28;20045;-88
2023/07/07 05:01:26;;;;;;;16.13;9.02;;;18.00;99.90;;;;;;5026314;28;20056;-86
2023/07/07 05:03:54;;;;;;;13.95;8.73;;;18.80;99.90;;;;;;5041192;28;20045;-89
2023/07/07 05:06:21;;;;;;;14.73;8.70;;;19.50;99.90;;;;;;5040645;28;20041;-84
2023/07/07 05:08:47;;;;;;;11.27;8.45;;;20.10;99.90;;;;;;5033549;28;20053;-82
2023/07/07 05:11:16;;;;;;;11.02;7.85;;;20.70;99.90;;;;;;5016659;28;20115;-82
2023/07/07 05:13:42;;;;;;;14.02;8.43;;;21.20;99.90;;;;;;5034497;28;20057;-88
2023/07/07 05:16:11;;;;;;;12.10;7.97;;;21.60;99.90;;;;;;5033691;28;20049;-85
2023/07/07 05:18:37;;;;;;;12.23;7.80;;;22.10;99.90;;;;;;5032847;28;20045;-79
2023/07/07 05:21:04;;;;;;;11.02;7.35;;;22.40;99.90;;;;;;5016913;28;20140;-84
2023/07/07 05:23:30;;;;;;;11.85;6.95;;;22.70;99.90;;;;;;5038220;28;20049;-90
2023/07/07 05:25:56;;;;;;;9.20;6.82;;;23.20;99.90;;;;;;5035607;28;20128;-86
2023/07/07 05:28:22;;;;;;;9.48;6.82;;;23.70;99.30;;;;;;5017152;28;20191;-87
2023/07/07 05:30:48;;;;;;;12.02;6.55;;;24.10;99.90;;;;;;5038796;28;20059;-83
2023/07/07 05:33:14;;;;;;;14.07;6.80;;;24.30;99.20;;;;;;5041505;28;20167;-78
2023/07/07 05:36:08;;;;;;;10.50;6.90;;;24.50;98.70;;;;;;5041461;28;20049;-87
2023/07/07 05:38:34;;;;;;;;;;;25.00;98.10;;;;;;5033738;28;20083;-85
2023/07/07 05:41:00;;;;;;;12.00;6.43;;;25.40;96.50;;;;;;5034988;28;19920;-85
2023/07/07 05:43:26;;;;;;;9.57;6.65;;;25.70;97.00;;;;;;5036479;28;20045;-86
2023/07/07 05:46:00;;;;;;;10.13;6.10;;;26.10;96.20;;;;;;5033616;28;20049;-86
2023/07/07 05:48:27;;;;;;;12.27;6.70;;;26.10;94.90;;;;;;5033483;28;20045;-86
2023/07/07 05:50:55;;;;;;;10.57;5.90;;;26.10;94.80;;;;;;5035271;28;20403;-87
2023/07/07 05:53:21;;;;;;;8.60;5.90;;;26.30;94.80;;;;;;5033896;28;20049;-88
2023/07/07 05:55:47;;;;;;;11.43;6.53;;;26.50;95.20;;;;;;5034851;28;20049;-87
2023/07/07 05:58:15;;;;;;;7.78;5.97;;;26.70;94.90;;;;;;5016149;28;20148;-88
2023/07/07 06:00:41;;;;;;;8.98;5.72;;;26.90;94.80;;;;;;5034470;28;20042;-86
2023/07/07 06:03:07;;;;;;;12.23;6.85;;;27.40;94.50;;;;;;5017993;28;20371;-88
2023/07/07 06:05:33;;;;;;;10.10;6.03;;;27.30;93.50;;;;;;5033442;28;20055;-83
2023/07/07 06:07:59;;;;;;;9.00;5.95;;;27.50;93.40;;;;;;5021662;28;20053;-82
2023/07/07 06:10:25;;;;;;;10.38;5.97;;;27.50;93.30;;;;;;5054743;28;20115;-84
2023/07/07 06:12:51;;;;;;;9.50;5.55;;;27.50;93.30;;;;;;5034585;28;20041;-77
2023/07/07 06:15:18;;;;;;;11.82;5.70;;;27.60;93.10;;;;;;5033457;28;20132;-83
2023/07/07 06:17:48;;;;;;;9.52;5.97;;;27.90;93.10;;;;;;5032267;28;20057;-81
2023/07/07 06:20:15;;;;;;;10.75;6.10;;;28.10;92.40;;;;;;5033929;28;20061;-80
2023/07/07 06:22:41;;;;;;;11.45;5.45;;;28.40;92.40;;;;;;5015827;28;20045;-81
2023/07/07 06:25:07;;;;;;;9.85;5.45;;;28.60;92.20;;;;;;5032020;28;20049;-80
2023/07/07 06:27:33;;;;;;;9.07;5.47;;;28.80;91.80;;;;;;5031574;28;20064;-83
2023/07/07 06:29:59;;;;;;;10.23;5.90;;;28.80;91.70;;;;;;5033139;28;20064;-82
2023/07/07 06:32:25;;;;;;;7.55;4.88;;;29.00;91.70;;;;;;5015020;28;20056;-80
2023/07/07 06:34:50;;;;;;;11.45;5.50;;;29.10;90.90;;;;;;5032271;28;20049;-82
2023/07/07 06:37:17;;;;;;;11.32;5.35;;;29.30;91.40;;;;;;5032312;28;20048;-80
2023/07/07 06:39:42;;;;;;;9.35;5.22;;;29.10;90.90;;;;;;5031496;28;20041;-82
2023/07/07 06:42:09;;;;;;;9.23;5.20;;;29.10;90.90;;;;;;5031925;28;20095;-81
2023/07/07 06:44:40;;;;;;;8.38;5.25;;;29.20;91.00;;;;;;5031638;28;20379;-82
2023/07/07 06:47:11;;;;;;;12.63;5.72;;;29.40;90.90;;;;;;5033211;28;20099;-84
2023/07/07 06:49:36;;;;;;;7.82;4.63;;;29.50;90.70;;;;;;5032355;28;20057;-82
2023/07/07 06:52:03;;;;;;;7.40;4.60;;;29.70;90.70;;;;;;5031829;28;20041;-80
2023/07/07 06:54:28;;;;;;;9.18;4.70;;;29.90;90.30;;;;;;5014743;28;20061;-81
2023/07/07 06:56:54;;;;;;;11.00;4.65;;;30.10;90.50;;;;;;5015126;28;20140;-83
2023/07/07 06:59:21;;;;;;;9.02;4.72;;;30.40;90.30;;;;;;5014831;28;20495;-83
2023/07/07 07:01:47;;;;;;;10.35;4.70;;;30.70;89.30;;;;;;5015359;28;20052;-83
2023/07/07 07:04:12;;;;;;;11.90;4.90;;;31.00;89.10;;;;;;5013610;28;20053;-84
2023/07/07 07:06:41;;;;;;;9.57;4.78;;;31.20;88.10;;;;;;5013657;28;20045;-83
2023/07/07 07:09:08;;;;;;;6.68;4.22;;;31.30;87.60;;;;;;5031655;28;20119;-81
2023/07/07 07:11:34;;;;;;;7.38;3.90;;;31.50;85.90;;;;;;5030564;28;20045;-80
2023/07/07 07:14:00;;;;;;;8.05;4.38;;;31.50;86.00;;;;;;4998229;28;20065;-82
2023/07/07 07:16:26;;;;;;;7.03;4.32;;;31.60;86.20;;;;;;4998739;28;20137;-82
2023/07/07 07:18:52;;;;;;;6.25;3.97;;;31.50;85.90;;;;;;5031972;28;20084;-81
2023/07/07 07:21:18;;;;;;;7.85;4.43;;;31.80;86.00;;;;;;5032234;28;20107;-81
2023/07/07 07:23:44;;;;;;;7.10;3.72;;;31.90;85.30;;;;;;5015088;28;20072;-80
2023/07/07 07:26:10;;;;;;;5.80;3.50;;;32.30;85.30;;;;;;5030901;28;20483;-83
2023/07/07 07:28:35;;;;;;;7.00;3.63;;;32.60;84.80;;;;;;5031020;28;20042;-83
2023/07/07 07:31:01;;;;;;;6.50;3.60;;;32.80;84.20;;;;;;5031376;28;20514;-84
2023/07/07 07:33:27;;;;;;;8.40;3.63;;;33.10;83.90;;;;;;5013591;28;20086;-80
2023/07/07 07:35:53;;;;;;;8.65;3.55;;;33.30;83.20;;;;;;5032478;28;20072;-81
2023/07/07 07:38:22;;;;;;;6.10;3.22;;;33.60;83.00;;;;;;5032101;28;20099;-84
2023/07/07 07:40:52;;;;;;;6.57;3.08;;;33.70;81.80;;;;;;5033205;28;20080;-80
2023/07/07 07:43:18;;;;;;;6.38;3.00;;;33.90;80.60;;;;;;5035310;28;20049;-83
2023/07/07 07:45:44;;;;;;;7.93;3.15;;;33.60;79.90;;;;;;5037199;28;20045;-82
2023/07/07 07:48:09;;;;;;;5.93;3.15;;;33.70;80.40;;;;;;5003326;28;20402;-82
2023/07/07 07:50:35;;;;;;;6.95;3.08;;;33.70;80.30;;;;;;5034987;28;20045;-81
2023/07/07 07:53:01;;;;;;;7.82;3.25;;;33.80;79.90;;;;;;5035324;28;20049;-85
2023/07/07 07:55:27;;;;;;;7.55;3.10;;;34.10;79.40;;;;;;5018830;28;20041;-81
2023/07/07 07:57:53;;;;;;;8.00;2.65;;;33.80;79.20;;;;;;5035118;28;20061;-82
2023/07/07 08:00:19;;;;;;;6.65;3.15;;;33.90;79.30;;;;;;5036400;28;20072;-82
2023/07/07 08:02:45;;;;;;;8.23;3.00;;;33.90;78.60;;;;;;5034547;28;20045;-79
2023/07/07 08:05:11;;;;;;;6.78;2.97;;;34.00;78.10;;;;;;5036251;28;20045;-83
2023/07/07 08:07:38;;;;;;;7.70;2.75;;;34.10;78.30;;;;;;5001648;28;20046;-83
2023/07/07 08:10:04;;;;;;;7.82;3.10;;;34.20;76.70;;;;;;5035799;28;20131;-83
2023/07/07 08:12:30;;;;;;;7.03;2.63;;;34.40;77.50;;;;;;5035352;28;20131;-84
2023/07/07 08:14:56;;;;;;;4.53;2.70;;;34.50;77.20;;;;;;5036028;28;20085;-86
2023/07/07 08:17:22;;;;;;;5.35;2.85;;;34.80;77.30;;;;;;5018379;28;20046;-83
2023/07/07 08:19:48;;;;;;;5.18;2.53;;;34.90;76.20;;;;;;5017852;28;20050;-83
2023/07/07 08:22:20;;;;;;;5.32;2.67;;;35.10;75.10;;;;;;5034324;28;20059;-87
2023/07/07 08:24:48;;;;;;;8.30;2.40;;;35.10;75.40;;;;;;5051204;28;20107;-83
2023/07/07 08:27:15;;;;;;;5.22;2.65;;;35.40;74.90;;;;;;5035259;28;20049;-85
2023/07/07 08:29:42;;;;;;;4.57;2.33;;;35.30;74.30;;;;;;5035479;28;20049;-85
2023/07/07 08:32:13;;;;;;;5.22;2.67;;;35.30;73.90;;;;;;5036506;28;20064;-84
2023/07/07 08:34:39;;;;;;;6.03;2.53;;;35.60;73.50;;;;;;5034273;28;20053;-79
2023/07/07 08:37:05;;;;;;;7.13;2.90;;;35.40;73.30;;;;;;5035217;28;20057;-86
2023/07/07 08:39:31;;;;;;;6.13;2.60;;;35.50;72.00;;;;;;5022232;28;20402;-83
2023/07/07 08:42:18;;;;;;;7.32;2.58;;;35.50;72.90;;;;;;5039982;28;20061;-86
2023/07/07 08:44:44;;;;;;;6.10;2.50;;;35.70;72.00;;;;;;5019972;28;20522;-86
2023/07/07 08:47:12;;;;;;;5.43;2.33;;;36.10;72.10;;;;;;5035955;28;20044;-86
2023/07/07 08:49:49;;;;;;;5.70;2.50;;;36.20;72.20;;;;;;5034460;28;20041;-84
2023/07/07 08:52:45;;;;;;;3.92;2.13;;;36.10;71.00;;;;;;5033834;28;20485;-83
2023/07/07 08:55:36;;;;;;;3.88;2.22;;;36.20;70.20;;;;;;5035040;28;20136;-82
2023/07/07 08:58:30;;;;;;;5.75;2.13;;;36.10;69.00;;;;;;5029912;28;20198;-79
2023/07/07 09:01:14;;;;;;;4.80;2.30;;;35.80;69.80;;;;;;5028811;28;20686;-80
2023/07/07 09:04:03;;;;;;;10.75;2.55;;;35.70;69.70;;;;;;5033292;28;20131;-77
2023/07/07 09:06:44;;;;;;;5.47;2.40;;;35.40;68.70;;;;;;5033282;28;20435;-77
2023/07/07 09:09:31;;;;;;;5.55;2.17;;;35.10;68.60;;;;;;5035006;28;20045;-77
2023/07/07 09:12:15;;;;;;;3.83;2.20;;;34.70;68.50;;;;;;5032105;28;20092;-78
2023/07/07 09:14:43;;;;;;;5.50;2.13;;;34.50;69.00;;;;;;5033761;28;20512;-78
2023/07/07 09:17:19;;;;;;;4.07;2.40;;;34.40;68.40;;;;;;5016889;28;20081;-74
2023/07/07 09:19:47;;;;;;;5.00;2.40;;;34.70;68.90;;;;;;5014125;28;20053;-76
2023/07/07 09:22:24;;;;;;;4.72;2.20;;;34.80;68.30;;;;;;5032309;28;20376;-80
2023/07/07 09:24:57;;;;;;;3.03;2.13;;;34.80;68.60;;;;;;5014009;28;20095;-79
2023/07/07 09:27:28;;;;;;;3.67;2.28;;;34.50;68.20;;;;;;5030489;28;20045;-79
2023/07/07 09:30:02;;;;;;;4.22;2.05;;;34.80;66.70;;;;;;5032781;28;20141;-82
2023/07/07 09:32:28;;;;;;;5.32;2.33;;;35.20;66.20;;;;;;5030884;28;20049;-78
2023/07/07 09:34:54;;;;;;;4.22;2.30;;;35.20;67.30;;;;;;5030743;28;20056;-79
2023/07/07 09:37:52;;;;;;;5.60;2.28;;;35.50;67.80;;;;;;5031372;28;20057;-79
2023/07/07 09:40:33;;;;;;;3.80;2.40;;;35.70;66.40;;;;;;5033658;28;20057;-79
2023/07/07 09:43:18;;;;;;;4.05;2.17;;;35.60;66.00;;;;;;5031956;28;20121;-76
2023/07/07 09:45:56;;;;;;;4.60;2.17;;;35.40;67.10;;;;;;5015954;28;20053;-76
2023/07/07 09:48:40;;;;;;;4.00;2.20;;;34.80;66.70;;;;;;5027556;28;20055;-78
2023/07/07 09:51:28;;;;;;;4.03;2.30;;;34.80;67.10;;;;;;5030812;28;20076;-78
2023/07/07 09:53:55;;;;;;;7.00;2.20;;;34.80;66.90;;;;;;5015081;28;20049;-78
2023/07/07 09:56:28;;;;;;;4.78;2.08;;;35.00;67.30;;;;;;5029787;28;20136;-79
2023/07/07 09:59:38;;;;;;;4.50;2.40;;;35.10;66.70;;;;;;5048524;28;20049;-77
2023/07/07 10:02:23;;;;;;;6.28;2.60;;;35.30;65.60;;;;;;4971810;28;20058;-77
2023/07/07 10:04:59;;;;;;;4.07;2.30;;;34.90;67.80;;;;;;4952330;28;20062;-77
2023/07/07 10:07:26;;;;;;;4.65;2.08;;;34.80;66.80;;;;;;5008078;28;20050;-78
2023/07/07 10:09:52;;;;;;;4.25;2.35;;;34.40;67.40;;;;;;5032504;28;20049;-78
2023/07/07 10:12:18;;;;;;;5.38;2.50;;;34.30;66.70;;;;;;5029452;28;20180;-78
2023/07/07 10:14:45;;;;;;;4.88;2.40;;;34.10;67.90;;;;;;5030535;28;20049;-77
2023/07/07 10:17:14;;;;;;;5.57;2.22;;;34.00;68.10;;;;;;5031185;28;20107;-77
2023/07/07 10:19:49;;;;;;;6.30;2.33;;;33.70;67.70;;;;;;5031996;28;20053;-80
2023/07/07 10:22:16;;;;;;;6.75;2.20;;;33.40;68.30;;;;;;5031887;28;20517;-80
2023/07/07 10:24:44;;;;;;;6.35;2.65;;;33.20;67.20;;;;;;5031376;28;20072;-77
2023/07/07 10:27:18;;;;;;;4.78;2.40;;;32.90;67.10;;;;;;5031417;28;20124;-77
2023/07/07 10:29:45;;;;;;;4.85;2.20;;;32.80;67.80;;;;;;5031142;28;20049;-77
2023/07/07 10:32:15;;;;;;;5.38;3.35;;;32.70;68.10;;;;;;5031168;28;20470;-76
2023/07/07 10:34:54;;;;;;;4.95;2.92;;;32.40;68.40;;;;;;5015587;28;20061;-77
2023/07/07 10:37:34;;;;;;;6.50;3.00;;;32.50;68.20;;;;;;5032217;28;20510;-77
2023/07/07 10:40:01;;;;;;;5.30;2.20;;;32.40;68.00;;;;;;5031607;28;20479;-77
2023/07/07 10:42:29;;;;;;;6.15;2.45;;;32.10;68.30;;;;;;5031258;28;20131;-77
2023/07/07 10:44:58;;;;;;;5.70;2.10;;;32.00;68.60;;;;;;5030755;28;20132;-80
2023/07/07 10:47:33;;;;;;;4.07;2.40;;;32.00;69.40;;;;;;5032971;28;20103;-71
2023/07/07 10:50:00;;;;;;;7.45;2.63;;;32.20;69.60;;;;;;5032262;28;20052;-76
2023/07/07 10:52:58;;;;;;;4.28;2.30;;;32.20;68.70;;;;;;5032331;28;20099;-75
2023/07/07 10:56:04;;;;;;;4.35;2.30;;;31.90;68.90;;;;;;5020311;28;20053;-72
2023/07/07 10:58:39;;;;;;;8.38;2.60;;;31.80;68.60;;;;;;5030523;28;20053;-74
2023/07/07 11:01:32;;;;;;;5.88;2.72;;;31.70;69.70;;;;;;5027313;28;20128;-76
2023/07/07 11:04:09;;;;;;;;;;;31.60;69.10;;;;;;5038689;28;20049;-73
2023/07/07 11:06:51;;;;;;;4.82;2.45;;;31.70;69.20;;;;;;5039343;28;20035;-76
2023/07/07 11:09:22;;;;;;;3.67;2.20;;;31.90;70.20;;;;;;5014482;28;20260;-78
2023/07/07 11:12:05;;;;;;;5.03;2.70;;;32.00;69.80;;;;;;5014276;28;20462;-78
2023/07/07 11:14:37;;;;;;;;;;;32.10;68.90;;;;;;5031353;28;20132;-77
2023/07/07 11:17:24;;;;;;;4.45;2.50;;;32.10;69.00;;;;;;5030545;28;19928;-76
2023/07/07 11:20:14;;;;;;;5.10;2.50;;;32.10;69.30;;;;;;5028441;28;20053;-79
2023/07/07 11:23:14;;;;;;;5.32;2.47;;;32.10;69.60;;;;;;5030188;28;20140;-75
2023/07/07 11:25:57;;;;;;;6.78;2.58;;;31.90;68.90;;;;;;5030860;28;20047;-80
2023/07/07 11:28:55;;;;;;;5.68;2.58;;;31.50;69.40;;;;;;5030670;28;20049;-80
2023/07/07 11:31:39;;;;;;;5.60;2.78;;;30.80;70.60;;;;;;5029748;28;20042;-78
2023/07/07 11:34:40;;;;;;;5.55;2.60;;;30.50;70.90;;;;;;5029635;28;20132;-79
2023/07/07 11:37:28;;;;;;;7.40;3.10;;;30.40;71.00;;;;;;5029958;28;20464;-76
2023/07/07 11:40:11;;;;;;;4.78;2.45;;;30.10;71.50;;;;;;5031155;28;20490;-78
2023/07/07 11:43:02;;;;;;;5.20;2.60;;;30.10;71.90;;;;;;5030859;28;20050;-76
2023/07/07 11:45:52;;;;;;;3.70;2.47;;;30.10;71.30;;;;;;4994586;28;20107;-78
2023/07/07 11:48:50;;;;;;;5.20;2.45;;;30.10;72.30;;;;;;5031183;28;20045;-77
2023/07/07 11:51:35;;;;;;;5.13;2.40;;;30.10;72.40;;;;;;5030423;28;20052;-77
2023/07/07 11:54:37;;;;;;;5.57;2.70;;;30.30;72.10;;;;;;5028271;28;20049;-76
2023/07/07 11:57:12;;;;;;;6.10;2.60;;;30.30;71.00;;;;;;5031411;28;20392;-76
2023/07/07 12:00:12;;;;;;;5.50;2.60;;;30.30;70.90;;;;;;5031963;28;20088;-76
2023/07/07 12:03:03;;;;;;;4.72;2.60;;;30.40;71.00;;;;;;5031413;28;20045;-78
2023/07/07 12:05:33;;;;;;;6.35;2.60;;;30.40;70.90;;;;;;5027755;28;20052;-79
2023/07/07 12:08:08;;;;;;;6.88;3.03;;;30.20;71.60;;;;;;5045947;28;20045;-75
2023/07/07 12:10:44;;;;;;;4.80;2.30;;;30.00;71.40;;;;;;5029484;28;20045;-80
2023/07/07 12:13:14;;;;;;;7.13;2.80;;;29.90;72.00;;;;;;5029851;28;20556;-79
2023/07/07 12:16:09;;;;;;;4.50;2.60;;;30.00;72.60;;;;;;5031325;28;20056;-80
2023/07/07 12:18:37;;;;;;;5.95;2.88;;;30.00;71.80;;;;;;5031670;28;20053;-77
2023/07/07 12:21:10;;;;;;;4.43;2.50;;;30.20;71.90;;;;;;5030737;28;20273;-78
2023/07/07 12:23:39;;;;;;;6.22;2.70;;;30.30;72.20;;;;;;5030369;28;20478;-79
2023/07/07 12:26:17;;;;;;;5.88;2.72;;;30.20;72.00;;;;;;5031887;28;20068;-78
2023/07/07 12:28:48;;;;;;;5.93;2.50;;;30.20;71.80;;;;;;5033642;28;20084;-78
2023/07/07 12:31:15;;;;;;;4.95;2.60;;;30.20;70.90;;;;;;5035027;28;20213;-79
2023/07/07 12:33:41;;;;;;;4.47;2.28;;;30.10;71.50;;;;;;5035491;28;20049;-78
2023/07/07 12:36:08;;;;;;;5.60;3.03;;;30.10;71.10;;;;;;5019464;28;20045;-77
2023/07/07 12:38:35;;;;;;;4.40;2.63;;;30.10;71.00;;;;;;5035733;28;20041;-77
2023/07/07 12:41:06;;;;;;;7.72;2.60;;;30.00;70.60;;;;;;5034428;28;20132;-80
2023/07/07 12:43:59;;;;;;;5.93;2.70;;;30.00;71.00;;;;;;5034148;28;20046;-78
2023/07/07 12:46:34;;;;;;;4.93;2.88;;;29.90;71.60;;;;;;5029953;28;20053;-72
2023/07/07 12:49:05;;;;;;;8.90;2.85;;;29.70;70.70;;;;;;5050495;28;20068;-72
2023/07/07 12:51:35;;;;;;;4.32;2.88;;;29.70;71.40;;;;;;5034582;28;20045;-71
2023/07/07 12:54:01;;;;;;;4.07;2.47;;;29.70;70.00;;;;;;5033819;28;20394;-71
2023/07/07 12:56:29;;;;;;;6.05;2.63;;;29.60;70.00;;;;;;5033228;28;20057;-71
2023/07/07 12:59:00;;;;;;;4.90;2.65;;;29.60;70.80;;;;;;5034788;28;20042;-71
2023/07/07 13:01:26;;;;;;;6.35;2.72;;;29.50;70.90;;;;;;5034332;28;20037;-71
2023/07/07 13:04:10;;;;;;;5.32;2.70;;;29.50;70.60;;;;;;5034633;28;20049;-72
2023/07/07 13:06:38;;;;;;;6.10;2.50;;;29.20;70.70;;;;;;5034333;28;20045;-71